Addicks, Texas
Current Conditions -  °F | °C
As of 5:20 AM on Monday 22 Dec 2014 (Local Time) from KSGR Reporting Station
Haze Haze  
Wind Chill: 54°   Ceiling: Unl
Heat Index: 54°   Visibility: 1mi
Dew Point: 54°   Wind: 3mph
Humidity: 100%   Direction: 130°SE
Pressure: 29.76"   Gusts: NA
Location:  29.7757°N, 95.6037°W
Report Text: KSGR 221120Z AUTO 13003KT 1SM BR FEW004 SCT026 SCT041 12/12 A2976 RMK AO2 T01220122
Loading
Personal Weather Stations






























Interactive Weather Map New forecast layout! Learn more

10-Day Weather Forecast

Advertisements
Track Severe Weather on mobile